createdAt,value
2018-01-19T00:00:02.581Z,92.20
2018-01-19T00:02:30.727Z,92.20
2018-01-19T00:04:58.846Z,92.00
2018-01-19T00:07:27.018Z,91.70
2018-01-19T00:09:55.136Z,91.20
2018-01-19T00:12:23.275Z,91.90
2018-01-19T00:14:51.385Z,91.70
2018-01-19T00:17:19.515Z,91.60
2018-01-19T00:19:47.628Z,91.60
2018-01-19T00:22:15.770Z,91.80
2018-01-19T00:24:43.880Z,91.60
2018-01-19T00:27:11.992Z,91.30
2018-01-19T00:29:40.135Z,92.00
2018-01-19T00:32:09.019Z,91.30
2018-01-19T00:34:37.184Z,91.30
2018-01-19T00:37:05.310Z,92.20
2018-01-19T00:39:34.209Z,91.80
2018-01-19T00:42:02.317Z,91.90
2018-01-19T00:44:30.458Z,91.30
2018-01-19T00:46:58.574Z,91.60
2018-01-19T00:49:26.695Z,92.00
2018-01-19T00:51:54.827Z,92.00
2018-01-19T00:54:22.951Z,91.60
2018-01-19T00:56:51.836Z,91.70
2018-01-19T00:59:19.961Z,91.60
2018-01-19T01:01:48.075Z,91.90
2018-01-19T01:04:16.188Z,92.10
2018-01-19T01:06:44.316Z,92.10
2018-01-19T01:09:12.459Z,91.40
2018-01-19T01:11:41.356Z,91.50
2018-01-19T01:14:10.239Z,91.50
2018-01-19T01:16:39.160Z,91.80
2018-01-19T01:19:07.338Z,91.70
2018-01-19T01:21:35.492Z,91.70
2018-01-19T01:24:04.427Z,91.80
2018-01-19T01:26:32.546Z,91.90
2018-01-19T01:29:01.447Z,91.10
2018-01-19T01:31:30.331Z,91.40
2018-01-19T01:33:59.211Z,91.10
2018-01-19T01:36:27.332Z,91.00
2018-01-19T01:38:55.497Z,90.80
2018-01-19T01:41:23.623Z,91.10
2018-01-19T01:43:51.737Z,91.90
2018-01-19T01:46:19.859Z,91.90
2018-01-19T01:48:59.912Z,92.40
2018-01-19T01:51:28.013Z,92.20
2018-01-19T01:53:56.901Z,92.40
2018-01-19T01:56:25.063Z,92.30
2018-01-19T01:58:53.423Z,92.30
2018-01-19T02:01:21.527Z,92.30
2018-01-19T02:03:50.436Z,92.00
2018-01-19T02:06:18.551Z,92.00
2018-01-19T02:08:46.663Z,92.40
2018-01-19T02:11:15.575Z,92.10
2018-01-19T02:13:43.693Z,92.10
2018-01-19T02:16:11.835Z,92.20
2018-01-19T02:18:39.992Z,92.20
2018-01-19T02:21:08.909Z,92.20
2018-01-19T02:23:37.068Z,92.20
2018-01-19T02:26:05.183Z,92.30
2018-01-19T02:28:33.290Z,92.10
2018-01-19T02:31:02.204Z,92.00
2018-01-19T02:33:30.319Z,91.90
2018-01-19T02:35:58.470Z,91.90
2018-01-19T02:38:26.597Z,92.00
2018-01-19T02:40:55.521Z,91.90
2018-01-19T02:43:23.717Z,92.00
2018-01-19T02:45:51.833Z,92.00
2018-01-19T02:48:19.951Z,91.70
2018-01-19T02:50:48.081Z,91.60
2018-01-19T02:53:16.232Z,91.30
2018-01-19T02:55:44.355Z,91.20
2018-01-19T02:58:12.471Z,91.20
2018-01-19T03:00:40.620Z,90.90
2018-01-19T03:03:08.743Z,91.00
2018-01-19T03:05:36.866Z,90.90
2018-01-19T03:08:04.972Z,90.60
2018-01-19T03:10:33.100Z,90.50
2018-01-19T03:13:01.221Z,90.50
2018-01-19T03:15:29.358Z,90.20
2018-01-19T03:17:57.475Z,90.10
2018-01-19T03:20:25.603Z,90.40
2018-01-19T03:22:53.727Z,90.30
2018-01-19T03:25:21.858Z,90.30
2018-01-19T03:27:49.991Z,90.40
2018-01-19T03:30:18.867Z,90.50
2018-01-19T03:32:46.985Z,90.50
2018-01-19T03:35:15.098Z,90.10
2018-01-19T03:37:43.242Z,88.80
2018-01-19T03:40:12.262Z,88.20
2018-01-19T03:42:40.376Z,88.40
2018-01-19T03:45:08.516Z,88.90
2018-01-19T03:47:36.644Z,89.10
2018-01-19T03:50:10.695Z,88.70
2018-01-19T03:52:38.819Z,89.00
2018-01-19T03:55:06.973Z,89.10
2018-01-19T03:57:35.854Z,89.00
2018-01-19T04:00:04.785Z,89.00
2018-01-19T04:02:32.899Z,89.00
2018-01-19T04:05:01.016Z,89.10
2018-01-19T04:07:29.140Z,89.80
2018-01-19T04:09:57.267Z,89.40
2018-01-19T04:12:25.435Z,88.20
2018-01-19T04:14:53.555Z,88.50
2018-01-19T04:17:21.660Z,89.80
2018-01-19T04:19:49.779Z,90.10
2018-01-19T04:22:17.911Z,90.00
2018-01-19T04:24:46.787Z,89.20
2018-01-19T04:27:14.904Z,90.10
2018-01-19T04:29:43.048Z,90.40
2018-01-19T04:32:11.920Z,90.50
2018-01-19T04:34:40.029Z,90.40
2018-01-19T04:37:08.156Z,90.60
2018-01-19T04:39:36.263Z,90.80
2018-01-19T04:42:05.165Z,90.60
2018-01-19T04:44:33.268Z,90.60
2018-01-19T04:47:01.389Z,90.70
2018-01-19T04:49:30.301Z,90.80
2018-01-19T04:51:58.409Z,90.80
2018-01-19T04:54:26.539Z,91.10
2018-01-19T04:56:55.096Z,91.50
2018-01-19T04:59:23.211Z,91.90
2018-01-19T05:01:51.368Z,92.30
2018-01-19T05:04:20.255Z,92.20
2018-01-19T05:06:49.177Z,92.20
2018-01-19T05:09:17.295Z,92.10
2018-01-19T05:11:45.421Z,92.10
2018-01-19T05:14:13.551Z,92.10
2018-01-19T05:16:42.442Z,91.80
2018-01-19T05:19:10.559Z,91.70
2018-01-19T05:21:38.663Z,91.80
2018-01-19T05:24:06.784Z,91.60
2018-01-19T05:26:34.891Z,91.70
2018-01-19T05:29:03.259Z,91.60
2018-01-19T05:31:31.362Z,91.60
2018-01-19T05:33:59.476Z,91.90
2018-01-19T05:36:28.377Z,91.60
2018-01-19T05:38:56.511Z,91.60
2018-01-19T05:41:24.632Z,91.10
2018-01-19T05:43:52.743Z,91.60
2018-01-19T05:46:20.843Z,91.40
2018-01-19T05:48:49.743Z,91.10
2018-01-19T05:51:18.635Z,90.60
2018-01-19T05:53:47.769Z,90.80
2018-01-19T05:56:15.872Z,90.80
2018-01-19T05:58:44.039Z,90.60
2018-01-19T06:01:12.183Z,90.80
2018-01-19T06:03:40.327Z,90.90
2018-01-19T06:06:09.227Z,90.60
2018-01-19T06:08:37.343Z,90.70
2018-01-19T06:11:05.457Z,90.40
2018-01-19T06:13:34.339Z,90.30
2018-01-19T06:16:02.469Z,90.20
2018-01-19T06:18:30.595Z,90.00
2018-01-19T06:20:59.518Z,88.80
2018-01-19T06:23:27.635Z,88.80
2018-01-19T06:25:55.761Z,90.10
2018-01-19T06:28:23.884Z,90.00
2018-01-19T06:30:52.009Z,89.70
2018-01-19T06:33:20.159Z,90.00
2018-01-19T06:35:49.073Z,90.00
2018-01-19T06:38:17.203Z,90.00
2018-01-19T06:40:45.331Z,89.40
2018-01-19T06:43:13.438Z,89.30
2018-01-19T06:45:41.574Z,89.00
2018-01-19T06:48:09.703Z,89.70
2018-01-19T06:50:38.581Z,90.00
2018-01-19T06:53:06.720Z,89.40
2018-01-19T06:55:34.843Z,88.80
2018-01-19T06:58:03.745Z,88.90
2018-01-19T07:00:32.616Z,89.00
2018-01-19T07:03:00.747Z,88.90
2018-01-19T07:05:28.856Z,89.30
2018-01-19T07:07:57.000Z,89.00
2018-01-19T07:10:25.113Z,88.70
2018-01-19T07:12:53.238Z,89.70
2018-01-19T07:15:21.367Z,89.60
2018-01-19T07:17:50.247Z,89.30
2018-01-19T07:20:18.384Z,89.20
2018-01-19T07:22:46.509Z,89.00
2018-01-19T07:25:15.375Z,89.20
2018-01-19T07:27:43.952Z,88.80
2018-01-19T07:30:12.083Z,89.10
2018-01-19T07:32:40.219Z,89.50
2018-01-19T07:35:08.324Z,88.90
2018-01-19T07:37:36.500Z,88.70
2018-01-19T07:40:05.400Z,89.60
2018-01-19T07:42:33.566Z,89.70
2018-01-19T07:45:01.694Z,89.20
2018-01-19T07:47:29.810Z,89.70
2018-01-19T07:49:57.984Z,89.80
2018-01-19T07:52:26.888Z,90.20
2018-01-19T07:54:55.050Z,90.40
2018-01-19T07:57:23.934Z,89.70
2018-01-19T07:59:52.061Z,89.60
2018-01-19T08:02:20.212Z,89.70
2018-01-19T08:04:48.401Z,90.10
2018-01-19T08:07:16.547Z,89.70
2018-01-19T08:09:44.676Z,90.00
2018-01-19T08:12:13.555Z,90.10
2018-01-19T08:14:42.559Z,90.10
2018-01-19T08:17:11.463Z,89.70
2018-01-19T08:19:39.613Z,89.40
2018-01-19T08:22:07.851Z,88.40
2018-01-19T08:24:36.446Z,89.80
2018-01-19T08:27:04.566Z,89.00
2018-01-19T08:29:33.460Z,89.50
2018-01-19T08:32:03.507Z,88.30
2018-01-19T08:34:31.619Z,88.30
2018-01-19T08:36:59.742Z,87.60
2018-01-19T08:39:27.859Z,88.30
2018-01-19T08:41:55.993Z,87.90
2018-01-19T08:44:24.108Z,88.30
2018-01-19T08:46:52.340Z,86.50
2018-01-19T08:49:20.479Z,82.70
2018-01-19T08:51:49.359Z,81.10
2018-01-19T08:54:17.501Z,81.20
2018-01-19T08:56:45.615Z,80.70
2018-01-19T08:59:14.525Z,82.30
2018-01-19T09:01:43.400Z,83.20
2018-01-19T09:04:12.288Z,82.10
2018-01-19T09:06:40.426Z,82.00
2018-01-19T09:09:08.531Z,81.70
2018-01-19T09:11:36.668Z,80.80
2018-01-19T09:14:04.859Z,79.20
2018-01-19T09:16:32.998Z,78.80
2018-01-19T09:19:01.119Z,78.80
2018-01-19T09:21:29.225Z,79.60
2018-01-19T09:23:57.354Z,79.30
2018-01-19T09:26:25.470Z,79.90
2018-01-19T09:28:53.656Z,79.70
2018-01-19T09:31:21.831Z,76.70
2018-01-19T09:33:50.700Z,66.50
2018-01-19T09:36:19.599Z,62.50
2018-01-19T09:38:47.788Z,62.40
2018-01-19T09:41:15.904Z,62.40
2018-01-19T09:43:44.040Z,61.50
2018-01-19T09:46:12.161Z,61.50
2018-01-19T09:48:40.292Z,60.30
2018-01-19T09:51:08.405Z,59.00
2018-01-19T09:53:36.556Z,59.10
2018-01-19T09:56:04.693Z,60.10
2018-01-19T09:58:32.822Z,58.40
2018-01-19T10:01:00.956Z,57.80
2018-01-19T10:03:29.082Z,57.20
2018-01-19T10:05:57.232Z,56.30
2018-01-19T10:08:25.468Z,55.80
2018-01-19T10:10:54.331Z,64.80
2018-01-19T10:13:23.255Z,67.10
2018-01-19T10:15:51.396Z,67.10
2018-01-19T10:18:19.533Z,69.20
2018-01-19T10:20:47.652Z,72.50
2018-01-19T10:23:16.528Z,73.20
2018-01-19T10:25:44.660Z,72.70
2018-01-19T10:28:12.787Z,73.20
2018-01-19T10:30:41.744Z,73.00
2018-01-19T10:33:09.807Z,73.00
2018-01-19T10:35:37.948Z,74.00
2018-01-19T10:38:06.088Z,74.00
2018-01-19T10:40:35.010Z,75.00
2018-01-19T10:43:03.905Z,75.70
2018-01-19T10:45:32.041Z,75.70
2018-01-19T10:48:00.199Z,74.30
2018-01-19T10:50:28.331Z,73.70
2018-01-19T10:52:56.451Z,73.10
2018-01-19T10:55:25.380Z,72.40
2018-01-19T10:57:53.519Z,73.80
2018-01-19T11:00:21.639Z,73.40
2018-01-19T11:02:49.787Z,73.20
2018-01-19T11:05:18.836Z,72.30
2018-01-19T11:07:47.045Z,72.50
2018-01-19T11:10:15.948Z,72.60
2018-01-19T11:12:44.099Z,71.80
2018-01-19T11:15:13.740Z,72.30
2018-01-19T11:17:42.669Z,72.70
2018-01-19T11:20:10.860Z,73.20
2018-01-19T11:22:38.980Z,72.10
2018-01-19T11:25:07.163Z,71.60
2018-01-19T11:27:36.056Z,71.60
2018-01-19T11:30:04.188Z,72.00
2018-01-19T11:32:32.403Z,70.30
2018-01-19T11:35:00.507Z,71.30
2018-01-19T11:37:28.615Z,71.60
2018-01-19T11:39:57.523Z,71.50
2018-01-19T11:42:26.410Z,72.10
2018-01-19T11:44:55.344Z,70.70
2018-01-19T11:47:23.480Z,70.60
2018-01-19T11:49:52.351Z,71.70
2018-01-19T11:52:21.244Z,72.40
2018-01-19T11:54:50.127Z,71.60
2018-01-19T11:57:18.261Z,71.60
2018-01-19T11:59:46.387Z,73.30
2018-01-19T12:02:15.276Z,73.60
2018-01-19T12:04:43.413Z,73.10
2018-01-19T12:07:11.559Z,73.00
2018-01-19T12:09:39.694Z,72.70
2018-01-19T12:12:08.637Z,73.70
2018-01-19T12:14:36.812Z,73.50
2018-01-19T12:17:04.933Z,73.20
2018-01-19T12:19:33.820Z,69.30
2018-01-19T12:22:02.336Z,69.30
2018-01-19T12:24:30.468Z,66.60
2018-01-19T12:26:58.587Z,67.00
2018-01-19T12:29:26.722Z,67.00
2018-01-19T12:31:54.977Z,66.40
2018-01-19T12:34:23.107Z,67.70
2018-01-19T12:36:51.221Z,68.00
2018-01-19T12:39:19.425Z,68.60
2018-01-19T12:41:48.329Z,67.40
2018-01-19T12:44:17.209Z,66.80
2018-01-19T12:46:46.095Z,66.40
2018-01-19T12:49:14.220Z,66.20
2018-01-19T12:51:42.359Z,66.10
2018-01-19T12:54:10.479Z,65.50
2018-01-19T12:56:38.598Z,64.80
2018-01-19T12:59:07.521Z,62.20
2018-01-19T13:01:35.648Z,62.00
2018-01-19T13:04:04.561Z,62.20
2018-01-19T13:06:32.672Z,62.10
2018-01-19T13:09:00.804Z,62.40
2018-01-19T13:11:29.693Z,63.50
2018-01-19T13:13:58.575Z,62.50
2018-01-19T13:16:27.494Z,63.00
2018-01-19T13:18:55.612Z,62.80
2018-01-19T13:21:23.748Z,63.40
2018-01-19T13:23:51.872Z,63.80
2018-01-19T13:26:20.090Z,64.40
2018-01-19T13:28:48.195Z,65.20
2018-01-19T13:31:16.299Z,63.30
2018-01-19T13:33:45.226Z,63.00
2018-01-19T13:36:13.338Z,62.50
2018-01-19T13:38:41.471Z,62.50
2018-01-19T13:41:09.629Z,62.30
2018-01-19T13:43:38.537Z,63.60
2018-01-19T13:46:06.719Z,63.70
2018-01-19T13:48:34.886Z,63.80
2018-01-19T13:51:03.020Z,62.60
2018-01-19T13:53:31.117Z,63.20
2018-01-19T13:55:59.261Z,62.90
2018-01-19T13:58:27.378Z,62.60
2018-01-19T14:00:55.552Z,61.80
2018-01-19T14:03:23.656Z,62.20
2018-01-19T14:05:51.776Z,60.60
2018-01-19T14:08:20.667Z,61.30
2018-01-19T14:10:49.579Z,61.60
2018-01-19T14:13:17.720Z,61.60
2018-01-19T14:15:45.832Z,61.50
2018-01-19T14:18:14.000Z,63.40
2018-01-19T14:20:42.120Z,62.90
2018-01-19T14:23:10.232Z,63.50
2018-01-19T14:25:38.352Z,61.30
2018-01-19T14:28:06.475Z,60.60
2018-01-19T14:30:35.364Z,57.00
2018-01-19T14:33:04.249Z,57.00
2018-01-19T14:35:33.131Z,54.90
2018-01-19T14:38:02.024Z,55.30
2018-01-19T14:40:30.185Z,54.60
2018-01-19T14:42:58.327Z,55.80
2018-01-19T14:45:26.451Z,57.20
2018-01-19T14:47:55.334Z,59.80
2018-01-19T14:50:24.231Z,61.30
2018-01-19T14:52:53.122Z,61.20
2018-01-19T14:55:22.023Z,61.60
2018-01-19T14:57:50.895Z,61.60
2018-01-19T15:00:19.016Z,61.30
2018-01-19T15:02:47.154Z,61.70
2018-01-19T15:05:16.071Z,60.80
2018-01-19T15:07:44.968Z,62.00
2018-01-19T15:10:13.084Z,61.80
2018-01-19T15:12:41.199Z,62.40
2018-01-19T15:15:09.320Z,62.60
2018-01-19T15:17:37.448Z,62.10
2018-01-19T15:20:05.583Z,62.10
2018-01-19T15:22:33.699Z,63.30
2018-01-19T15:25:01.823Z,63.50
2018-01-19T15:27:30.106Z,63.60
2018-01-19T15:29:58.214Z,62.70
2018-01-19T15:32:26.358Z,61.90
2018-01-19T15:34:54.467Z,62.10
2018-01-19T15:37:22.588Z,62.40
2018-01-19T15:39:50.723Z,62.10
2018-01-19T15:42:18.852Z,62.50
2018-01-19T15:44:47.007Z,62.60
2018-01-19T15:47:15.112Z,62.40
2018-01-19T15:49:43.987Z,63.60
2018-01-19T15:52:12.112Z,63.60
2018-01-19T15:54:40.221Z,64.00
2018-01-19T15:57:08.368Z,65.00
2018-01-19T15:59:36.485Z,65.00
2018-01-19T16:02:05.376Z,65.40
2018-01-19T16:04:34.265Z,66.00
2018-01-19T16:07:03.137Z,66.50
2018-01-19T16:09:31.266Z,66.60
2018-01-19T16:11:59.379Z,66.90
2018-01-19T16:14:29.057Z,67.40
2018-01-19T16:16:57.344Z,67.50
2018-01-19T16:19:25.452Z,67.60
2018-01-19T16:21:53.599Z,68.00
2018-01-19T16:24:21.713Z,67.60
2018-01-19T16:26:50.586Z,67.60
2018-01-19T16:29:18.731Z,67.60
2018-01-19T16:31:46.854Z,65.90
2018-01-19T16:34:15.729Z,66.80
2018-01-19T16:36:43.884Z,66.10
2018-01-19T16:39:12.008Z,66.70
2018-01-19T16:41:40.127Z,66.80
2018-01-19T16:44:08.251Z,66.10
2018-01-19T16:46:36.406Z,65.40
2018-01-19T16:49:07.278Z,66.20
2018-01-19T16:51:33.461Z,66.20
2018-01-19T16:54:01.580Z,66.10
2018-01-19T16:56:29.690Z,65.80
2018-01-19T16:58:57.838Z,66.50
2018-01-19T17:01:25.953Z,66.10
2018-01-19T17:03:54.060Z,66.30
2018-01-19T17:06:22.198Z,66.70
2018-01-19T17:08:50.310Z,66.60
2018-01-19T17:11:18.436Z,66.80
2018-01-19T17:13:46.591Z,67.60
2018-01-19T17:16:14.716Z,67.50
2018-01-19T17:18:42.905Z,67.20
2018-01-19T17:21:11.050Z,67.50
2018-01-19T17:23:39.915Z,69.20
2018-01-19T17:26:08.041Z,67.80
2018-01-19T17:28:36.157Z,69.20
2018-01-19T17:31:04.275Z,68.30
2018-01-19T17:33:32.380Z,69.90
2018-01-19T17:36:00.523Z,70.30
2018-01-19T17:38:28.636Z,70.60
2018-01-19T17:40:56.758Z,71.10
2018-01-19T17:43:25.664Z,70.70
2018-01-19T17:45:53.845Z,71.10
2018-01-19T17:48:21.961Z,70.60
2018-01-19T17:50:50.111Z,71.20
2018-01-19T17:53:18.250Z,70.80
2018-01-19T17:55:47.155Z,71.60
2018-01-19T17:58:16.046Z,71.50
2018-01-19T18:00:44.167Z,71.70
2018-01-19T18:03:12.293Z,71.60
2018-01-19T18:05:40.452Z,71.40
2018-01-19T18:08:09.358Z,71.70
2018-01-19T18:10:38.228Z,72.30
2018-01-19T18:13:07.140Z,72.50
2018-01-19T18:15:35.264Z,72.60
2018-01-19T18:18:03.381Z,72.80
2018-01-19T18:20:31.528Z,73.10
2018-01-19T18:22:59.649Z,72.90
2018-01-19T18:25:27.763Z,73.10
2018-01-19T18:27:55.924Z,73.30
2018-01-19T18:30:24.049Z,73.20
2018-01-19T18:32:52.165Z,73.00
2018-01-19T18:35:20.285Z,73.40
2018-01-19T18:37:49.157Z,73.30
2018-01-19T18:40:17.272Z,73.30
2018-01-19T18:42:45.463Z,73.20
2018-01-19T18:45:13.577Z,73.00
2018-01-19T18:47:42.455Z,72.60
2018-01-19T18:50:10.648Z,72.60
2018-01-19T18:52:39.532Z,73.40
2018-01-19T18:55:08.437Z,73.90
2018-01-19T18:57:37.348Z,73.10
2018-01-19T19:00:05.693Z,73.20
2018-01-19T19:02:33.902Z,73.40
2018-01-19T19:05:02.032Z,74.20
2018-01-19T19:07:30.168Z,74.20
2018-01-19T19:09:58.299Z,73.40
2018-01-19T19:12:27.212Z,73.50
2018-01-19T19:14:55.323Z,73.50
2018-01-19T19:17:23.439Z,73.50
2018-01-19T19:19:52.345Z,74.20
2018-01-19T19:22:20.455Z,74.30
2018-01-19T19:24:48.575Z,74.30
2018-01-19T19:27:17.499Z,74.80
2018-01-19T19:29:45.613Z,74.60
2018-01-19T19:32:13.733Z,74.80
2018-01-19T19:34:41.896Z,74.90
2018-01-19T19:37:10.006Z,75.30
2018-01-19T19:39:38.177Z,75.00
2018-01-19T19:42:06.316Z,74.60
2018-01-19T19:44:34.476Z,74.80
2018-01-19T19:47:02.615Z,75.00
2018-01-19T19:49:30.810Z,74.90
2018-01-19T19:51:59.516Z,75.30
2018-01-19T19:54:28.404Z,77.40
2018-01-19T19:56:57.368Z,77.80
2018-01-19T19:59:25.504Z,78.60
2018-01-19T20:01:53.607Z,77.70
2018-01-19T20:04:21.749Z,78.60
2018-01-19T20:06:49.866Z,78.50
2018-01-19T20:09:17.983Z,79.00
2018-01-19T20:11:46.126Z,78.80
2018-01-19T20:14:14.239Z,78.40
2018-01-19T20:16:44.012Z,78.80
2018-01-19T20:19:12.198Z,78.50
2018-01-19T20:21:40.369Z,78.30
2018-01-19T20:24:09.275Z,79.30
2018-01-19T20:26:38.208Z,79.70
2018-01-19T20:29:06.379Z,79.70
2018-01-19T20:31:34.499Z,79.30
2018-01-19T20:34:03.405Z,79.60
2018-01-19T20:36:31.543Z,79.60
2018-01-19T20:38:59.659Z,79.50
2018-01-19T20:41:27.848Z,79.70
2018-01-19T20:43:55.960Z,79.50
2018-01-19T20:46:24.122Z,79.80
2018-01-19T20:48:52.250Z,79.20
2018-01-19T20:51:20.394Z,80.00
2018-01-19T20:53:48.556Z,79.80
2018-01-19T20:56:16.664Z,79.50
2018-01-19T20:58:45.535Z,79.60
2018-01-19T21:01:14.456Z,79.40
2018-01-19T21:03:42.589Z,79.60
2018-01-19T21:06:10.716Z,79.40
2018-01-19T21:08:38.844Z,79.40
2018-01-19T21:11:07.777Z,80.00
2018-01-19T21:13:35.890Z,79.10
2018-01-19T21:16:04.040Z,79.90
2018-01-19T21:18:32.176Z,79.60
2018-01-19T21:21:00.295Z,79.60
2018-01-19T21:23:28.423Z,79.50
2018-01-19T21:25:56.555Z,79.70
2018-01-19T21:28:24.693Z,79.80
2018-01-19T21:30:52.854Z,82.10
2018-01-19T21:33:20.976Z,79.70
2018-01-19T21:35:49.097Z,79.60
2018-01-19T21:38:17.223Z,79.00
2018-01-19T21:40:45.341Z,79.20
2018-01-19T21:43:13.516Z,79.60
2018-01-19T21:45:41.751Z,79.60
2018-01-19T21:48:09.864Z,79.50
2018-01-19T21:50:38.005Z,79.90
2018-01-19T21:53:06.115Z,80.40
2018-01-19T21:55:34.307Z,80.20
2018-01-19T21:58:02.424Z,80.20
2018-01-19T22:00:30.543Z,80.30
2018-01-19T22:02:58.818Z,80.70
2018-01-19T22:05:26.932Z,80.20
2018-01-19T22:07:55.072Z,80.30
2018-01-19T22:10:23.963Z,81.60
2018-01-19T22:12:52.856Z,81.00
2018-01-19T22:15:20.993Z,80.80
2018-01-19T22:17:49.876Z,80.70
2018-01-19T22:20:18.816Z,80.50
2018-01-19T22:22:46.931Z,80.90
2018-01-19T22:25:15.044Z,80.30
2018-01-19T22:27:43.187Z,79.80
2018-01-19T22:30:11.394Z,80.20
2018-01-19T22:32:39.504Z,80.00
2018-01-19T22:35:07.616Z,79.80
2018-01-19T22:37:36.527Z,80.00
2018-01-19T22:40:05.391Z,79.80
2018-01-19T22:42:34.272Z,79.80
2018-01-19T22:45:02.413Z,79.80
2018-01-19T22:47:30.525Z,79.30
2018-01-19T22:49:58.664Z,80.10
2018-01-19T22:52:26.775Z,80.50
2018-01-19T22:54:55.659Z,79.90
2018-01-19T22:57:23.788Z,79.80
2018-01-19T22:59:51.913Z,79.90
2018-01-19T23:02:20.811Z,80.40
2018-01-19T23:04:49.692Z,80.40
2018-01-19T23:07:18.584Z,80.00
2018-01-19T23:09:47.484Z,80.30
2018-01-19T23:12:16.371Z,79.90
2018-01-19T23:14:45.309Z,80.00
2018-01-19T23:17:13.409Z,79.90
2018-01-19T23:19:41.549Z,79.70
2018-01-19T23:22:09.668Z,79.30
2018-01-19T23:24:37.788Z,79.00
2018-01-19T23:27:06.160Z,79.40
2018-01-19T23:29:34.276Z,78.70
2018-01-19T23:32:02.408Z,79.00
2018-01-19T23:34:30.520Z,78.70
2018-01-19T23:36:58.648Z,78.70
2018-01-19T23:39:26.791Z,78.50
2018-01-19T23:41:55.684Z,78.80
2018-01-19T23:44:24.605Z,78.30
2018-01-19T23:46:52.785Z,78.40
2018-01-19T23:49:20.872Z,78.70
2018-01-19T23:51:49.008Z,78.80
2018-01-19T23:54:17.128Z,78.70
2018-01-19T23:56:45.267Z,78.30
2018-01-19T23:59:13.384Z,77.90
